< Typhoon 199429 1994 Season Typhoon 199431 >
Typhoon 199430 (TERESA)
General InformationTrack Information on Google MapsDetailed Wind InformationList of All Images || Disaster Info.ResourceGoogle EarthGE AnimationAtom FeedGeoJSON
Detalied Best Track (Time Zone = UTC)
Year Month Day Hour Lat. Long. Pressure (hPa) Wind (kt) Class Image Chart
1994 10 16 00 15.9 146.2 1008 0 2 Image Chart
1994 10 16 06 15.6 145.4 1006 0 2 Image Chart
1994 10 16 12 15.5 144.0 1006 0 2 Image Chart
1994 10 16 18 15.6 142.7 1006 0 2 Image Chart
1994 10 17 00 16.0 141.0 1004 0 2 Image Chart
1994 10 17 06 16.3 139.9 1002 0 2 Image Chart
1994 10 17 12 16.4 138.7 1000 35 3 Image Chart
1994 10 17 18 16.3 137.5 996 40 3 Image Chart
1994 10 18 00 16.0 135.9 994 45 3 Image Chart
1994 10 18 06 15.6 134.4 990 50 4 Image Chart
1994 10 18 12 15.3 133.0 990 50 4 Image Chart
1994 10 18 18 15.2 131.8 990 50 4 Image Chart
1994 10 19 00 15.4 130.3 985 55 4 Image Chart
1994 10 19 06 15.5 128.8 980 60 4 Image Chart
1994 10 19 12 15.6 127.5 975 65 5 Image Chart
1994 10 19 18 15.7 126.5 965 70 5 Image Chart
1994 10 20 00 15.6 125.4 955 80 5 Image Chart
1994 10 20 06 15.5 124.4 955 80 5 Image Chart
1994 10 20 12 15.4 123.7 955 80 5 Image Chart
1994 10 20 18 15.2 122.9 960 75 5 Image Chart
1994 10 21 00 14.8 122.2 970 70 5 Image Chart
1994 10 21 06 14.3 121.2 980 60 4 Image Chart
1994 10 21 12 13.9 120.0 985 55 4 Image Chart
1994 10 21 18 13.4 118.8 985 55 4 Image Chart
1994 10 22 00 13.0 117.9 985 55 4 Image Chart
1994 10 22 06 12.6 116.9 985 55 4 Image Chart
1994 10 22 12 12.2 116.0 980 60 4 Image Chart
1994 10 22 18 11.7 115.3 980 60 4 Image Chart
1994 10 23 00 11.3 114.7 980 60 4 Image Chart
1994 10 23 06 11.0 114.2 975 65 5 Image Chart
1994 10 23 12 10.9 113.7 975 65 5 Image Chart
1994 10 23 18 10.8 113.2 975 65 5 Image Chart
1994 10 24 00 10.8 112.7 970 70 5 Image Chart
1994 10 24 06 10.8 112.4 970 70 5 Image Chart
1994 10 24 12 11.0 112.0 975 65 5 Image Chart
1994 10 24 18 11.0 111.5 975 65 5 Image Chart
1994 10 25 00 10.9 111.0 980 60 4 Image Chart
1994 10 25 06 10.8 110.5 985 55 4 Image Chart
1994 10 25 12 10.8 110.1 990 50 4 Image Chart
1994 10 25 18 10.8 109.8 994 45 3 Image Chart
1994 10 26 00 10.9 109.5 998 35 3 Image Chart
1994 10 26 06 11.0 109.2 1000 35 3 Image Chart
1994 10 26 12 11.1 109.0 1002 0 2 Image Chart
1994 10 26 18 11.2 108.8 1006 0 2 Image Chart
Japan Meteorological Agency Best Track Data | Correction Date : 1995-01-30
< Typhoon 199429 1994 Season Typhoon 199431 >

Help